sensor_id;sensor_type;location;lat;lon;timestamp;P1;durP1;ratioP1;P2;durP2;ratioP2
17145;SDS011;8688;54.444;18.444;2022-12-26T00:01:51;62.80;;;18.37;;
17145;SDS011;8688;54.444;18.444;2022-12-26T00:04:19;68.63;;;18.07;;
17145;SDS011;8688;54.444;18.444;2022-12-26T00:06:47;88.20;;;20.70;;
17145;SDS011;8688;54.444;18.444;2022-12-26T00:09:15;62.60;;;18.00;;
17145;SDS011;8688;54.444;18.444;2022-12-26T00:11:42;92.63;;;19.70;;
17145;SDS011;8688;54.444;18.444;2022-12-26T00:14:12;52.20;;;16.27;;
17145;SDS011;8688;54.444;18.444;2022-12-26T00:16:41;45.67;;;18.07;;
17145;SDS011;8688;54.444;18.444;2022-12-26T00:19:10;69.10;;;19.07;;
17145;SDS011;8688;54.444;18.444;2022-12-26T00:21:38;70.03;;;18.20;;
17145;SDS011;8688;54.444;18.444;2022-12-26T00:24:06;75.83;;;18.60;;
17145;SDS011;8688;54.444;18.444;2022-12-26T00:26:36;48.03;;;17.60;;
17145;SDS011;8688;54.444;18.444;2022-12-26T00:29:03;55.73;;;19.30;;
17145;SDS011;8688;54.444;18.444;2022-12-26T00:31:33;52.93;;;17.67;;
17145;SDS011;8688;54.444;18.444;2022-12-26T00:34:01;59.97;;;18.83;;
17145;SDS011;8688;54.444;18.444;2022-12-26T00:36:29;59.73;;;18.53;;
17145;SDS011;8688;54.444;18.444;2022-12-26T00:38:59;59.67;;;18.60;;
17145;SDS011;8688;54.444;18.444;2022-12-26T00:41:28;56.20;;;19.87;;
17145;SDS011;8688;54.444;18.444;2022-12-26T00:43:55;51.63;;;19.23;;
17145;SDS011;8688;54.444;18.444;2022-12-26T00:46:23;63.90;;;19.97;;
17145;SDS011;8688;54.444;18.444;2022-12-26T00:48:53;48.07;;;19.07;;
17145;SDS011;8688;54.444;18.444;2022-12-26T00:51:20;50.50;;;19.17;;
17145;SDS011;8688;54.444;18.444;2022-12-26T00:53:48;48.87;;;18.87;;
17145;SDS011;8688;54.444;18.444;2022-12-26T00:56:16;48.07;;;19.23;;
17145;SDS011;8688;54.444;18.444;2022-12-26T00:58:43;49.47;;;19.97;;
17145;SDS011;8688;54.444;18.444;2022-12-26T01:01:11;52.33;;;20.27;;
17145;SDS011;8688;54.444;18.444;2022-12-26T01:03:41;50.80;;;20.30;;
17145;SDS011;8688;54.444;18.444;2022-12-26T01:06:11;50.27;;;20.97;;
17145;SDS011;8688;54.444;18.444;2022-12-26T01:08:39;49.93;;;20.73;;
17145;SDS011;8688;54.444;18.444;2022-12-26T01:11:07;54.63;;;21.53;;
17145;SDS011;8688;54.444;18.444;2022-12-26T01:13:36;50.77;;;21.33;;
17145;SDS011;8688;54.444;18.444;2022-12-26T01:16:03;58.13;;;20.70;;
17145;SDS011;8688;54.444;18.444;2022-12-26T01:18:32;59.10;;;21.33;;
17145;SDS011;8688;54.444;18.444;2022-12-26T01:21:01;51.27;;;20.10;;
17145;SDS011;8688;54.444;18.444;2022-12-26T01:23:32;55.77;;;20.53;;
17145;SDS011;8688;54.444;18.444;2022-12-26T01:26:00;49.93;;;21.13;;
17145;SDS011;8688;54.444;18.444;2022-12-26T01:28:30;60.67;;;21.53;;
17145;SDS011;8688;54.444;18.444;2022-12-26T01:30:59;52.90;;;20.70;;
17145;SDS011;8688;54.444;18.444;2022-12-26T01:33:28;46.20;;;20.57;;
17145;SDS011;8688;54.444;18.444;2022-12-26T01:35:56;50.67;;;21.37;;
17145;SDS011;8688;54.444;18.444;2022-12-26T01:38:24;51.57;;;20.93;;
17145;SDS011;8688;54.444;18.444;2022-12-26T01:40:53;52.43;;;21.10;;
17145;SDS011;8688;54.444;18.444;2022-12-26T01:43:45;47.53;;;21.00;;
17145;SDS011;8688;54.444;18.444;2022-12-26T01:46:18;50.57;;;20.13;;
17145;SDS011;8688;54.444;18.444;2022-12-26T01:48:48;56.63;;;22.47;;
17145;SDS011;8688;54.444;18.444;2022-12-26T01:51:17;48.50;;;20.60;;
17145;SDS011;8688;54.444;18.444;2022-12-26T01:53:46;53.30;;;20.53;;
17145;SDS011;8688;54.444;18.444;2022-12-26T01:56:20;49.17;;;20.27;;
17145;SDS011;8688;54.444;18.444;2022-12-26T01:58:49;47.17;;;20.47;;
17145;SDS011;8688;54.444;18.444;2022-12-26T02:01:21;50.70;;;20.53;;
17145;SDS011;8688;54.444;18.444;2022-12-26T02:03:52;52.30;;;20.57;;
17145;SDS011;8688;54.444;18.444;2022-12-26T02:06:46;45.33;;;19.60;;
17145;SDS011;8688;54.444;18.444;2022-12-26T02:09:13;43.37;;;18.73;;
17145;SDS011;8688;54.444;18.444;2022-12-26T02:11:43;42.47;;;19.33;;
17145;SDS011;8688;54.444;18.444;2022-12-26T02:14:15;43.83;;;19.57;;
17145;SDS011;8688;54.444;18.444;2022-12-26T02:16:42;46.33;;;20.27;;
17145;SDS011;8688;54.444;18.444;2022-12-26T02:19:13;42.20;;;19.10;;
17145;SDS011;8688;54.444;18.444;2022-12-26T02:22:02;43.93;;;19.30;;
17145;SDS011;8688;54.444;18.444;2022-12-26T02:24:50;38.03;;;19.07;;
17145;SDS011;8688;54.444;18.444;2022-12-26T02:27:36;46.47;;;20.17;;
17145;SDS011;8688;54.444;18.444;2022-12-26T02:30:33;45.13;;;18.97;;
17145;SDS011;8688;54.444;18.444;2022-12-26T02:33:16;43.33;;;19.67;;
17145;SDS011;8688;54.444;18.444;2022-12-26T02:36:00;48.87;;;21.57;;
17145;SDS011;8688;54.444;18.444;2022-12-26T02:39:05;40.97;;;19.37;;
17145;SDS011;8688;54.444;18.444;2022-12-26T02:41:47;44.33;;;19.83;;
17145;SDS011;8688;54.444;18.444;2022-12-26T02:44:24;41.10;;;19.13;;
17145;SDS011;8688;54.444;18.444;2022-12-26T02:47:17;46.53;;;20.20;;
17145;SDS011;8688;54.444;18.444;2022-12-26T02:49:58;46.10;;;19.73;;
17145;SDS011;8688;54.444;18.444;2022-12-26T02:52:52;45.40;;;19.43;;
17145;SDS011;8688;54.444;18.444;2022-12-26T02:55:46;35.77;;;16.93;;
17145;SDS011;8688;54.444;18.444;2022-12-26T02:58:37;35.47;;;17.17;;
17145;SDS011;8688;54.444;18.444;2022-12-26T03:01:29;36.67;;;16.83;;
17145;SDS011;8688;54.444;18.444;2022-12-26T03:04:19;31.97;;;16.03;;
17145;SDS011;8688;54.444;18.444;2022-12-26T03:07:09;33.27;;;16.30;;
17145;SDS011;8688;54.444;18.444;2022-12-26T03:09:59;37.27;;;16.27;;
17145;SDS011;8688;54.444;18.444;2022-12-26T03:12:49;28.73;;;15.07;;
17145;SDS011;8688;54.444;18.444;2022-12-26T03:15:38;33.90;;;15.70;;
17145;SDS011;8688;54.444;18.444;2022-12-26T03:18:27;31.47;;;14.53;;
17145;SDS011;8688;54.444;18.444;2022-12-26T03:20:57;29.93;;;15.37;;
17145;SDS011;8688;54.444;18.444;2022-12-26T03:23:26;34.10;;;15.53;;
17145;SDS011;8688;54.444;18.444;2022-12-26T03:25:56;32.63;;;15.40;;
17145;SDS011;8688;54.444;18.444;2022-12-26T03:28:42;33.13;;;16.53;;
17145;SDS011;8688;54.444;18.444;2022-12-26T03:31:10;34.73;;;15.07;;
17145;SDS011;8688;54.444;18.444;2022-12-26T03:33:39;32.97;;;15.53;;
17145;SDS011;8688;54.444;18.444;2022-12-26T03:36:30;37.53;;;16.57;;
17145;SDS011;8688;54.444;18.444;2022-12-26T03:39:07;38.37;;;16.60;;
17145;SDS011;8688;54.444;18.444;2022-12-26T03:41:43;36.40;;;17.07;;
17145;SDS011;8688;54.444;18.444;2022-12-26T03:44:36;35.80;;;17.03;;
17145;SDS011;8688;54.444;18.444;2022-12-26T03:47:33;38.23;;;17.53;;
17145;SDS011;8688;54.444;18.444;2022-12-26T03:50:25;36.30;;;16.53;;
17145;SDS011;8688;54.444;18.444;2022-12-26T03:53:19;36.50;;;16.70;;
17145;SDS011;8688;54.444;18.444;2022-12-26T03:56:08;31.97;;;15.53;;
17145;SDS011;8688;54.444;18.444;2022-12-26T03:58:55;41.37;;;18.67;;
17145;SDS011;8688;54.444;18.444;2022-12-26T04:01:44;42.03;;;18.70;;
17145;SDS011;8688;54.444;18.444;2022-12-26T04:04:29;42.80;;;19.13;;
17145;SDS011;8688;54.444;18.444;2022-12-26T04:07:14;38.90;;;17.87;;
17145;SDS011;8688;54.444;18.444;2022-12-26T04:10:06;41.07;;;19.03;;
17145;SDS011;8688;54.444;18.444;2022-12-26T04:12:52;31.00;;;16.83;;
17145;SDS011;8688;54.444;18.444;2022-12-26T04:15:40;35.33;;;17.07;;
17145;SDS011;8688;54.444;18.444;2022-12-26T04:18:33;33.13;;;17.17;;
17145;SDS011;8688;54.444;18.444;2022-12-26T04:21:25;36.43;;;16.80;;
17145;SDS011;8688;54.444;18.444;2022-12-26T04:24:15;32.70;;;15.60;;
17145;SDS011;8688;54.444;18.444;2022-12-26T04:27:05;32.40;;;15.27;;
17145;SDS011;8688;54.444;18.444;2022-12-26T04:29:55;30.23;;;15.73;;
17145;SDS011;8688;54.444;18.444;2022-12-26T04:32:40;32.10;;;16.47;;
17145;SDS011;8688;54.444;18.444;2022-12-26T04:35:29;31.07;;;15.47;;
17145;SDS011;8688;54.444;18.444;2022-12-26T04:38:18;29.53;;;15.80;;
17145;SDS011;8688;54.444;18.444;2022-12-26T04:41:05;26.40;;;13.97;;
17145;SDS011;8688;54.444;18.444;2022-12-26T04:43:53;29.30;;;14.07;;
17145;SDS011;8688;54.444;18.444;2022-12-26T04:46:29;23.80;;;13.07;;
17145;SDS011;8688;54.444;18.444;2022-12-26T04:48:58;25.20;;;13.10;;
17145;SDS011;8688;54.444;18.444;2022-12-26T04:51:46;24.27;;;11.60;;
17145;SDS011;8688;54.444;18.444;2022-12-26T04:54:14;20.77;;;11.47;;
17145;SDS011;8688;54.444;18.444;2022-12-26T04:56:42;19.87;;;10.70;;
17145;SDS011;8688;54.444;18.444;2022-12-26T04:59:11;20.97;;;10.60;;
17145;SDS011;8688;54.444;18.444;2022-12-26T05:01:39;18.57;;;9.83;;
17145;SDS011;8688;54.444;18.444;2022-12-26T05:04:23;16.77;;;9.67;;
17145;SDS011;8688;54.444;18.444;2022-12-26T05:07:11;14.87;;;8.57;;
17145;SDS011;8688;54.444;18.444;2022-12-26T05:09:58;14.73;;;8.47;;
17145;SDS011;8688;54.444;18.444;2022-12-26T05:12:26;14.40;;;8.63;;
17145;SDS011;8688;54.444;18.444;2022-12-26T05:14:55;16.27;;;8.47;;
17145;SDS011;8688;54.444;18.444;2022-12-26T05:17:23;16.40;;;9.03;;
17145;SDS011;8688;54.444;18.444;2022-12-26T05:20:09;15.97;;;8.77;;
17145;SDS011;8688;54.444;18.444;2022-12-26T05:22:54;14.73;;;8.37;;
17145;SDS011;8688;54.444;18.444;2022-12-26T05:25:40;17.20;;;8.60;;
17145;SDS011;8688;54.444;18.444;2022-12-26T05:28:26;18.87;;;9.20;;
17145;SDS011;8688;54.444;18.444;2022-12-26T05:31:11;16.57;;;9.83;;
17145;SDS011;8688;54.444;18.444;2022-12-26T05:33:40;17.70;;;9.87;;
17145;SDS011;8688;54.444;18.444;2022-12-26T05:36:26;17.53;;;8.80;;
17145;SDS011;8688;54.444;18.444;2022-12-26T05:38:57;17.97;;;10.07;;
17145;SDS011;8688;54.444;18.444;2022-12-26T05:41:26;17.30;;;9.90;;
17145;SDS011;8688;54.444;18.444;2022-12-26T05:43:53;18.23;;;10.03;;
17145;SDS011;8688;54.444;18.444;2022-12-26T05:46:22;17.60;;;8.97;;
17145;SDS011;8688;54.444;18.444;2022-12-26T05:48:50;13.90;;;8.07;;
17145;SDS011;8688;54.444;18.444;2022-12-26T05:51:17;15.27;;;7.77;;
17145;SDS011;8688;54.444;18.444;2022-12-26T05:53:45;12.90;;;7.27;;
17145;SDS011;8688;54.444;18.444;2022-12-26T05:56:14;12.23;;;7.03;;
17145;SDS011;8688;54.444;18.444;2022-12-26T06:11:33;13.47;;;6.30;;
17145;SDS011;8688;54.444;18.444;2022-12-26T06:14:01;11.27;;;5.63;;
17145;SDS011;8688;54.444;18.444;2022-12-26T06:16:29;11.43;;;6.87;;
17145;SDS011;8688;54.444;18.444;2022-12-26T06:18:57;9.43;;;5.57;;
17145;SDS011;8688;54.444;18.444;2022-12-26T06:21:24;10.47;;;5.50;;
17145;SDS011;8688;54.444;18.444;2022-12-26T06:23:52;11.10;;;6.43;;
17145;SDS011;8688;54.444;18.444;2022-12-26T06:26:19;10.37;;;6.13;;
17145;SDS011;8688;54.444;18.444;2022-12-26T06:28:48;11.97;;;6.43;;
17145;SDS011;8688;54.444;18.444;2022-12-26T06:31:16;12.93;;;6.83;;
17145;SDS011;8688;54.444;18.444;2022-12-26T06:33:45;20.00;;;9.83;;
17145;SDS011;8688;54.444;18.444;2022-12-26T06:36:14;33.27;;;15.80;;
17145;SDS011;8688;54.444;18.444;2022-12-26T06:38:43;17.87;;;9.47;;
17145;SDS011;8688;54.444;18.444;2022-12-26T06:41:12;29.20;;;15.10;;
17145;SDS011;8688;54.444;18.444;2022-12-26T06:43:41;27.03;;;15.67;;
17145;SDS011;8688;54.444;18.444;2022-12-26T06:46:11;12.27;;;6.33;;
17145;SDS011;8688;54.444;18.444;2022-12-26T06:48:40;13.03;;;7.73;;
17145;SDS011;8688;54.444;18.444;2022-12-26T06:51:09;17.20;;;9.27;;
17145;SDS011;8688;54.444;18.444;2022-12-26T06:53:38;16.33;;;9.53;;
17145;SDS011;8688;54.444;18.444;2022-12-26T06:56:06;10.00;;;6.27;;
17145;SDS011;8688;54.444;18.444;2022-12-26T06:58:34;20.83;;;11.80;;
17145;SDS011;8688;54.444;18.444;2022-12-26T07:01:05;11.37;;;7.53;;
17145;SDS011;8688;54.444;18.444;2022-12-26T07:21:59;7.03;;;4.70;;
17145;SDS011;8688;54.444;18.444;2022-12-26T07:24:26;7.87;;;4.70;;
17145;SDS011;8688;54.444;18.444;2022-12-26T07:26:54;6.97;;;4.30;;
17145;SDS011;8688;54.444;18.444;2022-12-26T07:29:21;6.37;;;4.07;;
17145;SDS011;8688;54.444;18.444;2022-12-26T07:37:01;7.07;;;5.13;;
17145;SDS011;8688;54.444;18.444;2022-12-26T07:39:28;8.93;;;6.43;;
17145;SDS011;8688;54.444;18.444;2022-12-26T07:41:56;8.10;;;6.50;;
17145;SDS011;8688;54.444;18.444;2022-12-26T07:44:22;10.90;;;7.13;;
17145;SDS011;8688;54.444;18.444;2022-12-26T07:46:50;14.30;;;9.40;;
17145;SDS011;8688;54.444;18.444;2022-12-26T07:49:17;14.20;;;8.93;;
17145;SDS011;8688;54.444;18.444;2022-12-26T07:51:44;9.23;;;6.20;;
17145;SDS011;8688;54.444;18.444;2022-12-26T07:54:13;16.87;;;11.17;;
17145;SDS011;8688;54.444;18.444;2022-12-26T07:56:41;14.23;;;9.77;;
17145;SDS011;8688;54.444;18.444;2022-12-26T07:59:11;15.57;;;10.20;;
17145;SDS011;8688;54.444;18.444;2022-12-26T08:01:39;18.27;;;12.27;;
17145;SDS011;8688;54.444;18.444;2022-12-26T08:04:07;13.67;;;8.40;;
17145;SDS011;8688;54.444;18.444;2022-12-26T08:06:34;10.83;;;7.17;;
17145;SDS011;8688;54.444;18.444;2022-12-26T08:09:02;11.47;;;7.70;;
17145;SDS011;8688;54.444;18.444;2022-12-26T08:11:32;24.43;;;12.63;;
17145;SDS011;8688;54.444;18.444;2022-12-26T08:14:01;7.83;;;5.63;;
17145;SDS011;8688;54.444;18.444;2022-12-26T08:16:29;7.33;;;5.40;;
17145;SDS011;8688;54.444;18.444;2022-12-26T08:18:56;6.40;;;4.67;;
17145;SDS011;8688;54.444;18.444;2022-12-26T08:21:24;7.33;;;4.63;;
17145;SDS011;8688;54.444;18.444;2022-12-26T08:23:51;6.63;;;4.57;;
17145;SDS011;8688;54.444;18.444;2022-12-26T08:26:19;7.53;;;4.50;;
17145;SDS011;8688;54.444;18.444;2022-12-26T08:28:49;8.03;;;6.00;;
17145;SDS011;8688;54.444;18.444;2022-12-26T08:31:18;40.60;;;20.43;;
17145;SDS011;8688;54.444;18.444;2022-12-26T08:33:46;34.03;;;18.93;;
17145;SDS011;8688;54.444;18.444;2022-12-26T08:36:19;37.43;;;19.57;;
17145;SDS011;8688;54.444;18.444;2022-12-26T08:38:47;26.53;;;14.83;;
17145;SDS011;8688;54.444;18.444;2022-12-26T08:41:14;31.83;;;17.63;;
17145;SDS011;8688;54.444;18.444;2022-12-26T08:43:43;16.13;;;11.10;;
17145;SDS011;8688;54.444;18.444;2022-12-26T08:46:15;14.50;;;9.03;;
17145;SDS011;8688;54.444;18.444;2022-12-26T08:48:43;9.27;;;6.57;;
17145;SDS011;8688;54.444;18.444;2022-12-26T08:51:13;10.60;;;6.47;;
17145;SDS011;8688;54.444;18.444;2022-12-26T08:53:41;10.80;;;7.63;;
17145;SDS011;8688;54.444;18.444;2022-12-26T08:56:10;7.07;;;4.93;;
17145;SDS011;8688;54.444;18.444;2022-12-26T08:58:39;11.50;;;6.00;;
17145;SDS011;8688;54.444;18.444;2022-12-26T09:01:07;7.87;;;5.60;;
17145;SDS011;8688;54.444;18.444;2022-12-26T09:03:37;8.80;;;6.30;;
17145;SDS011;8688;54.444;18.444;2022-12-26T09:06:05;8.93;;;5.50;;
17145;SDS011;8688;54.444;18.444;2022-12-26T09:08:34;7.03;;;5.30;;
17145;SDS011;8688;54.444;18.444;2022-12-26T09:11:02;8.83;;;5.47;;
17145;SDS011;8688;54.444;18.444;2022-12-26T09:13:30;8.80;;;5.60;;
17145;SDS011;8688;54.444;18.444;2022-12-26T09:16:02;9.97;;;5.93;;
17145;SDS011;8688;54.444;18.444;2022-12-26T09:18:34;11.00;;;6.47;;
17145;SDS011;8688;54.444;18.444;2022-12-26T09:21:04;9.27;;;5.87;;
17145;SDS011;8688;54.444;18.444;2022-12-26T09:23:32;10.10;;;6.07;;
17145;SDS011;8688;54.444;18.444;2022-12-26T09:26:04;8.30;;;6.10;;
17145;SDS011;8688;54.444;18.444;2022-12-26T09:28:33;9.40;;;6.43;;
17145;SDS011;8688;54.444;18.444;2022-12-26T09:31:01;9.10;;;6.40;;
17145;SDS011;8688;54.444;18.444;2022-12-26T09:33:29;11.27;;;6.67;;
17145;SDS011;8688;54.444;18.444;2022-12-26T09:35:57;11.63;;;6.60;;
17145;SDS011;8688;54.444;18.444;2022-12-26T09:38:26;12.80;;;7.43;;
17145;SDS011;8688;54.444;18.444;2022-12-26T09:40:57;10.97;;;6.90;;
17145;SDS011;8688;54.444;18.444;2022-12-26T09:43:36;10.47;;;7.00;;
17145;SDS011;8688;54.444;18.444;2022-12-26T09:46:12;9.93;;;6.33;;
17145;SDS011;8688;54.444;18.444;2022-12-26T09:48:45;11.53;;;7.17;;
17145;SDS011;8688;54.444;18.444;2022-12-26T09:51:19;10.87;;;7.77;;
17145;SDS011;8688;54.444;18.444;2022-12-26T09:53:48;13.23;;;8.80;;
17145;SDS011;8688;54.444;18.444;2022-12-26T09:56:16;12.37;;;8.57;;
17145;SDS011;8688;54.444;18.444;2022-12-26T09:58:47;12.87;;;8.37;;
17145;SDS011;8688;54.444;18.444;2022-12-26T10:01:19;14.67;;;9.60;;
17145;SDS011;8688;54.444;18.444;2022-12-26T10:03:49;16.17;;;9.13;;
17145;SDS011;8688;54.444;18.444;2022-12-26T10:06:21;25.63;;;13.00;;
17145;SDS011;8688;54.444;18.444;2022-12-26T10:08:59;17.80;;;11.27;;
17145;SDS011;8688;54.444;18.444;2022-12-26T10:11:35;21.43;;;11.47;;
17145;SDS011;8688;54.444;18.444;2022-12-26T10:14:20;20.23;;;11.93;;
17145;SDS011;8688;54.444;18.444;2022-12-26T10:16:59;24.57;;;13.43;;
17145;SDS011;8688;54.444;18.444;2022-12-26T10:19:42;20.87;;;10.83;;
17145;SDS011;8688;54.444;18.444;2022-12-26T10:25:18;29.93;;;15.63;;
17145;SDS011;8688;54.444;18.444;2022-12-26T10:27:49;57.20;;;26.30;;
17145;SDS011;8688;54.444;18.444;2022-12-26T10:30:19;33.30;;;17.63;;
17145;SDS011;8688;54.444;18.444;2022-12-26T10:32:50;17.20;;;10.43;;
17145;SDS011;8688;54.444;18.444;2022-12-26T10:35:24;21.40;;;12.03;;
17145;SDS011;8688;54.444;18.444;2022-12-26T10:37:55;14.57;;;9.50;;
17145;SDS011;8688;54.444;18.444;2022-12-26T10:40:30;14.23;;;9.07;;
17145;SDS011;8688;54.444;18.444;2022-12-26T10:43:07;13.03;;;9.00;;
17145;SDS011;8688;54.444;18.444;2022-12-26T10:45:45;11.97;;;7.87;;
17145;SDS011;8688;54.444;18.444;2022-12-26T10:48:17;10.50;;;7.33;;
17145;SDS011;8688;54.444;18.444;2022-12-26T10:50:46;10.53;;;7.73;;
17145;SDS011;8688;54.444;18.444;2022-12-26T10:53:15;11.90;;;7.90;;
17145;SDS011;8688;54.444;18.444;2022-12-26T10:55:45;15.17;;;8.10;;
17145;SDS011;8688;54.444;18.444;2022-12-26T10:58:13;14.03;;;8.27;;
17145;SDS011;8688;54.444;18.444;2022-12-26T11:00:44;12.87;;;7.63;;
17145;SDS011;8688;54.444;18.444;2022-12-26T11:03:17;12.87;;;8.07;;
17145;SDS011;8688;54.444;18.444;2022-12-26T11:05:50;12.30;;;8.03;;
17145;SDS011;8688;54.444;18.444;2022-12-26T11:08:22;13.27;;;8.77;;
17145;SDS011;8688;54.444;18.444;2022-12-26T11:11:01;9.93;;;7.20;;
17145;SDS011;8688;54.444;18.444;2022-12-26T11:13:31;14.07;;;7.97;;
17145;SDS011;8688;54.444;18.444;2022-12-26T11:16:04;14.03;;;8.00;;
17145;SDS011;8688;54.444;18.444;2022-12-26T11:18:34;12.77;;;8.00;;
17145;SDS011;8688;54.444;18.444;2022-12-26T11:21:10;12.10;;;7.63;;
17145;SDS011;8688;54.444;18.444;2022-12-26T11:23:39;11.20;;;7.57;;
17145;SDS011;8688;54.444;18.444;2022-12-26T11:26:17;13.30;;;7.87;;
17145;SDS011;8688;54.444;18.444;2022-12-26T11:28:49;13.07;;;7.40;;
17145;SDS011;8688;54.444;18.444;2022-12-26T11:31:34;10.57;;;6.67;;
17145;SDS011;8688;54.444;18.444;2022-12-26T11:34:06;10.73;;;6.77;;
17145;SDS011;8688;54.444;18.444;2022-12-26T11:36:38;10.47;;;6.40;;
17145;SDS011;8688;54.444;18.444;2022-12-26T11:39:17;10.03;;;6.57;;
17145;SDS011;8688;54.444;18.444;2022-12-26T11:41:49;12.67;;;7.70;;
17145;SDS011;8688;54.444;18.444;2022-12-26T11:44:18;12.43;;;6.53;;
17145;SDS011;8688;54.444;18.444;2022-12-26T11:46:50;12.77;;;7.33;;
17145;SDS011;8688;54.444;18.444;2022-12-26T11:49:24;10.40;;;6.60;;
17145;SDS011;8688;54.444;18.444;2022-12-26T11:51:55;10.63;;;6.43;;
17145;SDS011;8688;54.444;18.444;2022-12-26T11:54:24;11.80;;;6.20;;
17145;SDS011;8688;54.444;18.444;2022-12-26T11:59:46;12.43;;;7.03;;
17145;SDS011;8688;54.444;18.444;2022-12-26T12:02:16;11.87;;;6.50;;
17145;SDS011;8688;54.444;18.444;2022-12-26T12:04:47;8.87;;;5.60;;
17145;SDS011;8688;54.444;18.444;2022-12-26T12:07:19;11.30;;;7.33;;
17145;SDS011;8688;54.444;18.444;2022-12-26T12:09:58;6.20;;;4.23;;
17145;SDS011;8688;54.444;18.444;2022-12-26T12:12:51;6.87;;;4.50;;
17145;SDS011;8688;54.444;18.444;2022-12-26T12:15:26;5.63;;;3.10;;
17145;SDS011;8688;54.444;18.444;2022-12-26T12:17:59;8.07;;;5.83;;
17145;SDS011;8688;54.444;18.444;2022-12-26T12:20:31;5.70;;;3.03;;
17145;SDS011;8688;54.444;18.444;2022-12-26T12:23:19;4.63;;;2.20;;
17145;SDS011;8688;54.444;18.444;2022-12-26T12:26:05;2.70;;;1.40;;
17145;SDS011;8688;54.444;18.444;2022-12-26T12:31:49;2.87;;;2.00;;
17145;SDS011;8688;54.444;18.444;2022-12-26T12:34:39;5.43;;;2.63;;
17145;SDS011;8688;54.444;18.444;2022-12-26T12:37:27;3.13;;;2.00;;
17145;SDS011;8688;54.444;18.444;2022-12-26T12:40:05;2.30;;;1.30;;
17145;SDS011;8688;54.444;18.444;2022-12-26T12:42:48;1.93;;;1.27;;
17145;SDS011;8688;54.444;18.444;2022-12-26T12:45:24;3.70;;;1.67;;
17145;SDS011;8688;54.444;18.444;2022-12-26T12:48:00;3.00;;;1.80;;
17145;SDS011;8688;54.444;18.444;2022-12-26T12:50:41;1.90;;;1.30;;
17145;SDS011;8688;54.444;18.444;2022-12-26T12:53:17;2.97;;;1.60;;
17145;SDS011;8688;54.444;18.444;2022-12-26T12:56:00;2.43;;;1.73;;
17145;SDS011;8688;54.444;18.444;2022-12-26T13:02:02;4.03;;;2.27;;
17145;SDS011;8688;54.444;18.444;2022-12-26T13:04:39;4.03;;;2.40;;
17145;SDS011;8688;54.444;18.444;2022-12-26T13:07:12;3.30;;;2.57;;
17145;SDS011;8688;54.444;18.444;2022-12-26T13:09:44;5.73;;;2.80;;
17145;SDS011;8688;54.444;18.444;2022-12-26T13:12:17;5.17;;;3.00;;
17145;SDS011;8688;54.444;18.444;2022-12-26T13:14:47;5.73;;;2.40;;
17145;SDS011;8688;54.444;18.444;2022-12-26T13:17:18;4.13;;;2.30;;
17145;SDS011;8688;54.444;18.444;2022-12-26T13:19:53;5.20;;;2.57;;
17145;SDS011;8688;54.444;18.444;2022-12-26T13:22:26;4.13;;;2.33;;
17145;SDS011;8688;54.444;18.444;2022-12-26T13:25:18;2.73;;;1.50;;
17145;SDS011;8688;54.444;18.444;2022-12-26T13:27:47;4.00;;;2.00;;
17145;SDS011;8688;54.444;18.444;2022-12-26T13:30:16;2.03;;;1.20;;
17145;SDS011;8688;54.444;18.444;2022-12-26T13:32:44;2.30;;;1.50;;
17145;SDS011;8688;54.444;18.444;2022-12-26T13:38:16;2.73;;;1.57;;
17145;SDS011;8688;54.444;18.444;2022-12-26T13:40:44;1.80;;;1.40;;
17145;SDS011;8688;54.444;18.444;2022-12-26T13:43:16;3.23;;;1.70;;
17145;SDS011;8688;54.444;18.444;2022-12-26T13:46:03;3.00;;;1.80;;
17145;SDS011;8688;54.444;18.444;2022-12-26T13:51:53;2.43;;;1.67;;
17145;SDS011;8688;54.444;18.444;2022-12-26T13:54:24;2.30;;;1.67;;
17145;SDS011;8688;54.444;18.444;2022-12-26T14:00:07;4.37;;;2.00;;
17145;SDS011;8688;54.444;18.444;2022-12-26T14:05:37;6.10;;;2.43;;
17145;SDS011;8688;54.444;18.444;2022-12-26T14:08:14;3.23;;;2.13;;
17145;SDS011;8688;54.444;18.444;2022-12-26T14:10:53;3.43;;;1.50;;
17145;SDS011;8688;54.444;18.444;2022-12-26T14:13:32;3.73;;;2.13;;
17145;SDS011;8688;54.444;18.444;2022-12-26T14:16:13;3.03;;;2.00;;
17145;SDS011;8688;54.444;18.444;2022-12-26T14:18:48;3.83;;;2.30;;
17145;SDS011;8688;54.444;18.444;2022-12-26T14:21:24;11.47;;;5.53;;
17145;SDS011;8688;54.444;18.444;2022-12-26T14:24:09;3.13;;;2.00;;
17145;SDS011;8688;54.444;18.444;2022-12-26T14:26:50;3.43;;;2.00;;
17145;SDS011;8688;54.444;18.444;2022-12-26T14:29:26;6.00;;;2.50;;
17145;SDS011;8688;54.444;18.444;2022-12-26T14:32:02;5.40;;;3.50;;
17145;SDS011;8688;54.444;18.444;2022-12-26T14:34:45;3.47;;;2.43;;
17145;SDS011;8688;54.444;18.444;2022-12-26T14:37:21;4.47;;;2.63;;
17145;SDS011;8688;54.444;18.444;2022-12-26T14:40:01;3.23;;;1.90;;
17145;SDS011;8688;54.444;18.444;2022-12-26T14:45:38;4.73;;;2.90;;
17145;SDS011;8688;54.444;18.444;2022-12-26T14:54:17;3.20;;;1.80;;
17145;SDS011;8688;54.444;18.444;2022-12-26T15:00:12;4.80;;;2.33;;
17145;SDS011;8688;54.444;18.444;2022-12-26T15:03:07;6.23;;;2.30;;
17145;SDS011;8688;54.444;18.444;2022-12-26T15:14:12;3.27;;;2.10;;
17145;SDS011;8688;54.444;18.444;2022-12-26T15:17:16;2.33;;;1.80;;
17145;SDS011;8688;54.444;18.444;2022-12-26T15:19:58;4.03;;;2.40;;
17145;SDS011;8688;54.444;18.444;2022-12-26T15:25:54;3.37;;;2.13;;
17145;SDS011;8688;54.444;18.444;2022-12-26T15:31:46;2.13;;;1.40;;
17145;SDS011;8688;54.444;18.444;2022-12-26T15:36:52;5.03;;;2.40;;
17145;SDS011;8688;54.444;18.444;2022-12-26T15:39:26;2.87;;;2.00;;
17145;SDS011;8688;54.444;18.444;2022-12-26T15:42:03;4.17;;;2.33;;
17145;SDS011;8688;54.444;18.444;2022-12-26T15:44:43;6.40;;;3.27;;
17145;SDS011;8688;54.444;18.444;2022-12-26T15:47:21;5.10;;;2.90;;
17145;SDS011;8688;54.444;18.444;2022-12-26T15:50:01;10.07;;;4.00;;
17145;SDS011;8688;54.444;18.444;2022-12-26T15:52:46;10.47;;;3.90;;
17145;SDS011;8688;54.444;18.444;2022-12-26T15:55:33;16.00;;;6.43;;
17145;SDS011;8688;54.444;18.444;2022-12-26T15:58:14;21.30;;;7.50;;
17145;SDS011;8688;54.444;18.444;2022-12-26T16:00:55;23.73;;;8.77;;
17145;SDS011;8688;54.444;18.444;2022-12-26T16:03:33;12.00;;;6.10;;
17145;SDS011;8688;54.444;18.444;2022-12-26T16:06:16;16.73;;;8.27;;
17145;SDS011;8688;54.444;18.444;2022-12-26T16:08:59;11.57;;;6.70;;
17145;SDS011;8688;54.444;18.444;2022-12-26T16:11:46;8.17;;;4.50;;
17145;SDS011;8688;54.444;18.444;2022-12-26T16:14:28;7.30;;;4.43;;
17145;SDS011;8688;54.444;18.444;2022-12-26T16:19:45;5.60;;;3.57;;
17145;SDS011;8688;54.444;18.444;2022-12-26T16:22:14;6.73;;;3.30;;
17145;SDS011;8688;54.444;18.444;2022-12-26T16:25:02;7.67;;;4.33;;
17145;SDS011;8688;54.444;18.444;2022-12-26T16:27:31;6.90;;;4.27;;
17145;SDS011;8688;54.444;18.444;2022-12-26T16:30:03;7.23;;;3.97;;
17145;SDS011;8688;54.444;18.444;2022-12-26T16:32:33;8.50;;;4.57;;
17145;SDS011;8688;54.444;18.444;2022-12-26T16:35:03;9.40;;;4.73;;
17145;SDS011;8688;54.444;18.444;2022-12-26T16:37:33;6.37;;;3.87;;
17145;SDS011;8688;54.444;18.444;2022-12-26T16:40:13;6.83;;;3.73;;
17145;SDS011;8688;54.444;18.444;2022-12-26T16:42:53;6.33;;;3.13;;
17145;SDS011;8688;54.444;18.444;2022-12-26T16:45:25;7.07;;;3.50;;
17145;SDS011;8688;54.444;18.444;2022-12-26T16:47:56;6.47;;;3.20;;
17145;SDS011;8688;54.444;18.444;2022-12-26T16:50:25;7.07;;;3.57;;
17145;SDS011;8688;54.444;18.444;2022-12-26T16:53:00;7.17;;;3.70;;